KMDH Weather | Aviation | SIU

Home
Southern Illinois University

CONTACT

SIU.EDU

Aviation - Weather

College of Applied Sciences and Arts

KMDH Weather

NOTICE: Although all weather products are taken from the National Weather Service, this data should be used only as a supplement to a formal weather briefing.

Last Updated: Sunday, August 1st, 2021, 6:07 am
Information on this page is updated every 5 minutes.


METARS

KMDH 011052Z AUTO 32004KT 7SM OVC010 19/18 A3002 RMK AO2 CIG 008V014 SLP163

KMDH 010952Z AUTO 34007KT 7SM OVC010 20/18 A3001 RMK AO2 SLP157 T02000183

KMDH 010948Z AUTO 34005KT 7SM OVC010 20/18 A3000 RMK AO2

KMDH 010916Z AUTO 36005KT 6SM BR BKN009 OVC015 20/18 A3000 RMK AO2 T02000183

KMDH 010904Z AUTO 35006KT 6SM BR BKN010 OVC016 20/18 A3000 RMK AO2 CIG 008V012

KMDH 010852Z AUTO 36007KT 5SM BR SCT010 OVC015 20/19 A3000 RMK AO2 SLP154

KMDH 010823Z AUTO 36007KT 6SM BR OVC014 21/19 A2999 RMK AO2 T02060189

KMDH 010809Z AUTO 36007KT 6SM BR OVC015 21/19 A2999 RMK AO2 T02110189

KMWA 011055Z AUTO 00000KT 5SM BR OVC008 19/18 A3003 RMK AO2 T01870184

KMWA 011035Z AUTO 31005KT 7SM BKN008 OVC013 19/19 A3002 RMK AO2 T01900186

KMWA 011015Z AUTO 00000KT 5SM BR BKN008 OVC013 19/19 A3002 RMK AO2 T01930193

KMWA 010955Z AUTO 32003KT 4SM BR OVC006 19/19 A3001 RMK AO2 LTG DSNT S T01920192

KMWA 010935Z AUTO 00000KT 3SM BR OVC006 19/19 A3001 RMK AO2 LTG DSNT S T01910191

KMWA 010915Z AUTO 36003KT 3SM BR OVC006 19/19 A3001 RMK AO2 T01920192

KMWA 010855Z AUTO 00000KT 3SM BR SCT006 OVC011 19/19 A3001 RMK AO2 T01930193

KMWA 010835Z AUTO 01004KT 3SM BR OVC011 20/19 A3000 RMK AO2 T01950194

KMWA 010815Z AUTO 01007KT 4SM BR OVC011 20/20 A3000 RMK AO2 LTG DSNT SW

KCGI 011053Z AUTO 35006KT 6SM BR BKN012 OVC018 21/19 A3002 RMK AO2 RAB0955E04

KCGI 011006Z AUTO 35004KT 6SM BR FEW010 OVC015 22/20 A3000 RMK AO2 RAB0955E04

KCGI 010953Z AUTO 35005KT 6SM BR BKN010 OVC015 22/20 A2999 RMK AO2 SLP152

KCGI 010853Z AUTO 36007KT 8SM BKN014 OVC024 22/20 A2998 RMK AO2 SLP149 6////

KCGI 010840Z AUTO 36007KT 8SM OVC014 22/20 A2998 RMK AO2 T02220200 PNO $

KCGI 010825Z AUTO 36006KT 9SM BKN015 OVC030 22/20 A2998 RMK AO2 T02220200 PNO $

KSAR 011035Z AUTO 00000KT 4SM BR CLR 17/17 A3004 RMK AO2 T01670166

KSAR 011015Z AUTO 00000KT 5SM BR SCT005 17/17 A3004 RMK AO2 T01680166

KSAR 010955Z AUTO 33003KT 5SM BR SCT005 17/17 A3003 RMK AO2 T01700168

KSAR 010935Z AUTO 33003KT 5SM BR CLR 17/17 A3003 RMK AO2 T01700167

KSAR 010915Z AUTO 35003KT 7SM CLR 17/17 A3003 RMK AO2 T01720170

KSAR 010855Z AUTO 36003KT 7SM SCT012 18/17 A3004 RMK AO2 T01750171

KSAR 010835Z AUTO 36004KT 10SM BKN012 18/17 A3003 RMK AO2 T01800172

KSAR 010815Z AUTO 35006KT 10SM OVC012 19/18 A3003 RMK AO2 T01870175

KFAM 011056Z AUTO 31004KT 9SM OVC011 18/18 A3007 RMK AO2 SLP186 T01830178

KFAM 010956Z AUTO 36007KT 8SM OVC011 19/18 A3005 RMK AO2 SLP177 T01890178

KFAM 010856Z AUTO 02007KT 10SM OVC009 19/19 A3004 RMK AO2 SLP174 T01940189 53001

KMVN 011056Z AUTO 00000KT 4SM BR CLR 16/16 A3003 RMK AO2 SLP170 T01610161

KMVN 010956Z AUTO 00000KT 5SM BR CLR 17/17 A3000 RMK AO2 SLP161 T01670167

KMVN 010856Z AUTO 00000KT 7SM CLR 17/17 A3001 RMK AO2 SLP163 T01720172 56001

KMVN 010825Z AUTO 00000KT 7SM SCT015 18/18 A3001 RMK AO2

KHSB 011055Z AUTO 33003KT 5SM BR SCT012 BKN017 19/17 A3002 RMK AO2 T01900166

KHSB 011035Z AUTO 33005KT 5SM BR SCT012 BKN018 19/17 A3001 RMK AO2 T01930170

KHSB 011015Z AUTO 34003KT 5SM BR SCT010 OVC018 20/17 A3000 RMK AO2 T01950170

KCIR 011055Z AUTO 04004KT 21/20 A3001 RMK AO2 T02050196

KCIR 011035Z AUTO 05006KT 21/20 A3001 RMK AO2 T02050197

KCIR 011015Z AUTO 04004KT BKN008 OVC012 21/20 A3000 RMK AO2 T02070201

KPAH 011053Z 35003KT 4SM BR SCT010 OVC016 21/19 A3000 RMK AO2 SLP154 T02110189

KPAH 011043Z 35005KT 3SM BR BKN010 OVC016 21/19 A3000 RMK AO2 CIG 008V014

KPAH 011031Z AUTO 35003KT 3SM BR OVC009 21/19 A2999 RMK AO2 T02110189

KPOF 011053Z AUTO 5SM BR SCT008 22/21 A3003 RMK AO2 LTG DSNT S PRESRR SLP163

KPOF 011036Z AUTO 01005KT 4SM BR BKN008 22/21 A3001 RMK AO2 LTG DSNT SW CIG

KPOF 011026Z AUTO 02005KT 4SM BR SCT009 22/21 A3000 RMK AO2 LTG DSNT SW

KFAM 011056Z AUTO 31004KT 9SM OVC011 18/18 A3007 RMK AO2 SLP186 T01830178

KBLV 011056Z AUTO 00000KT 5SM HZ CLR 16/ A3002 RMK AO2 SLP166 $

KSTL 011051Z 28006KT 5SM BR FEW005 SCT042 SCT250 18/17 A3004 RMK AO2 SLP163

KTBN 011051Z AUTO 00000KT 10SM BKN005 OVC009 19/19 A3009 RMK AO2 CIG 005V008

KTBN 011026Z AUTO 00000KT 9SM BKN007 18/18 A3009 RMK AO2 CIG 007V180 BKN V SCT

KVIH 011059Z AUTO 24006KT 3SM BR OVC002 17/17 A3010 RMK AO2 T01720172

KVIH 011053Z AUTO 25006KT 1SM BR VV002 17/17 A3010 RMK AO2 SLP182 T01720172

KVIH 011036Z AUTO 29003KT 1/2SM FG VV001 17/17 A3009 RMK AO2 T01670167

KVIH 011021Z AUTO 30004KT 1/4SM FG VV001 17/17 A3008 RMK AO2 T01670167

KVIH 011013Z AUTO 28004KT 1/2SM FG VV001 17/17 A3008 RMK AO2 T01670167

KVIH 011011Z AUTO 28003KT 1SM BR VV001 16/16 A3008 RMK AO2 T01610161

KVIH 011009Z AUTO 28004KT 2SM BR SCT001 16/16 A3008 RMK AO2 T01560156

KENL 011055Z AUTO 00000KT 1 3/4SM BR OVC002 16/16 A3002 RMK AO2 T01590159

KENL 011035Z AUTO 26003KT 2SM BR SCT004 15/15 A3001 RMK AO2 T01530153

KENL 011015Z AUTO 28003KT 3SM BR CLR 15/15 A3001 RMK AO2 T01530153

KMTO 011053Z AUTO 24003KT 4SM BR CLR 16/14 A2999 RMK AO2 SLP153 T01560139

KFWC 011055Z AUTO 00000KT 4SM BR CLR 16/16 A3001 RMK AO1 T01600160

KFWC 011035Z AUTO 00000KT 4SM BR CLR 16/16 A3000 RMK AO1 T01620162

KFWC 011015Z AUTO 00000KT 5SM BR CLR 17/17 A2999 RMK AO1 T01650165

KCUL 011055Z AUTO 2 1/2SM BR BKN006 17/17 A3000 RMK AO2

KCUL 011035Z AUTO 4SM BR OVC008 17/17 A2999 RMK AO2

KCUL 011016Z AUTO 5SM BR OVC008 18/17 A2999 RMK AO2

KEVV 011054Z 00000KT 4SM BR FEW004 17/16 A3000 RMK AO2 SLP156 T01670161

KHOP 011056Z AUTO 31007KT 7SM SCT007 OVC022 21/21 A2998 RMK AO2 SLP149 T02070205

KMKL 011053Z AUTO 29003KT 3SM TSRA BR SCT005 BKN060 OVC100 22/22 A3002 RMK AO2

KMKL 011044Z AUTO 00000KT 7SM -RA SCT005 BKN060 OVC095 22/22 A3000 RMK AO2 LTG

KMKL 011030Z AUTO 00000KT 5SM VCTS -RA BR FEW007 BKN039 OVC110 22/22 A2999 RMK

KMKL 011022Z AUTO 00000KT 2SM +TSRA BR FEW007 BKN041 OVC070 22/22 A2998 RMK AO2

KMKL 011012Z AUTO VRB04KT 1 1/2SM +TSRA BR FEW005 BKN029 OVC049 23/22 A2998 RMK

KARG 011049Z AUTO 33008KT 3SM +TSRA BR SCT004 BKN009 OVC031 23/23 A3005 RMK AO2

KARG 011045Z AUTO 33009KT 2 1/2SM +TSRA BR FEW004 BKN016 OVC060 23/23 A3005 RMK

KARG 011037Z AUTO 36013KT 2 1/2SM +TSRA BR FEW007 BKN014 OVC060 23/23 A3003 RMK

KARG 011020Z AUTO 03006KT 8SM VCTS BKN060 BKN080 OVC110 23/23 A3000 RMK AO2 LTG

KJBR 011053Z AUTO 36004KT 10SM BKN065 24/23 A3000 RMK AO2 LTG DSNT NW-NE RAE00

KALN 011055Z AUTO 29003KT 2 1/2SM BR CLR 18/16 A3003 RMK AO2 T01800160

KALN 011035Z AUTO 28003KT 3SM BR CLR 18/16 A3003 RMK AO2 T01790159

KALN 011015Z AUTO 29003KT 4SM BR SCT045 18/16 A3003 RMK AO2 T01780158

KALN 011055Z AUTO 29003KT 2 1/2SM BR CLR 18/16 A3003 RMK AO2 T01800160

KALN 011035Z AUTO 28003KT 3SM BR CLR 18/16 A3003 RMK AO2 T01790159

KALN 011015Z AUTO 29003KT 4SM BR SCT045 18/16 A3003 RMK AO2 T01780158

KCOU 011054Z AUTO 24004KT 7SM CLR 17/17 A3008 RMK AO2 SLP178 T01720167

KAJG 011035Z AUTO 28003KT 3SM BR CLR 16/15 A2999 RMK AO2 P0001 T01560152

KAJG 011015Z AUTO 33004KT 3/4SM BR BKN003 16/16 A2999 RMK AO2 T01590155

KM30 011055Z AUTO 00000KT 5SM BR OVC018 21/21 A3002 RMK AO2 T02060206

KM30 011035Z AUTO 33003KT 5SM BR SCT010 OVC018 21/21 A3001 RMK AO2 LTG DSNT S

KM30 011015Z AUTO 34004KT 4SM BR OVC012 21/21 A3000 RMK AO2 LTG DSNT SE

KDEC 011054Z AUTO 27007KT 5SM BR SCT038 BKN048 18/18 A3001 RMK AO2 SLP158

KIJX 011035Z AUTO 00000KT 1/4SM FG OVC002 17/17 A3002 RMK AO2 T01650165

KIJX 011015Z AUTO 00000KT 1/4SM FG OVC002 16/16 A3002 RMK AO2 T01630163


TAFS

KEVV 010909Z 0109/0206 34004KT P6SM SCT006 BKN020 BKN035

        TEMPO 0109/0112 5SM BR SCT020

        FM011400 33006KT P6SM SCT025

        FM011600 33007KT P6SM SCT250

        FM020100 VRB04KT P6SM SCT250


Winds Aloft



Pilot Reports

No pilot reports found for area.



Area Forecast



Significant Weather

WAUS43 KKCI 010845 CHIS WA 010845 AIRMET SIERRA UPDT 2 FOR IFR AND MTN OBSCN VALID UNTIL 011500 AIRMET IFR...MO IL IN KY FROM 40W BVT TO 20NNE IIU TO BWG TO 40NE DYR TO SGF TO 30NE BUM TO 30N UIN TO 40W BVT CIG BLW 010/VIS BLW 3SM BR/FG. CONDS ENDG 12-15Z.